Midpines, California
Current Conditions -  °F | °C
As of 3:45 PM on Wednesday 22 Oct 2014 (Local Time) from KMER Reporting Station
Few Clouds Few Clouds  
Wind Chill: 79°   Ceiling: Unl
Heat Index: 79°   Visibility: 10mi
Dew Point: 39°   Wind: 9mph
Humidity: 24%   Direction: 320°NW
Pressure: 30.02"   Gusts: NA
Location:  37.54°N, 119.92°W
Report Text: KMER 222245Z 32008KT 10SM FEW045 26/04 A3002
Loading
Personal Weather Stations






























Interactive Weather Map
Tropical Storm Tracking
New forecast layout! Learn more

10-Day Weather Forecast

Advertisements
Track Severe Weather on mobile